sensor_id;sensor_type;location;lat;lon;timestamp;P1;durP1;ratioP1;P2;durP2;ratioP2
18239;SDS011;9244;50.828;4.718;2023-07-30T00:01:31;4.95;;;2.63;;
18239;SDS011;9244;50.828;4.718;2023-07-30T00:03:57;5.05;;;2.53;;
18239;SDS011;9244;50.828;4.718;2023-07-30T00:06:23;7.88;;;2.90;;
18239;SDS011;9244;50.828;4.718;2023-07-30T00:08:49;7.93;;;3.15;;
18239;SDS011;9244;50.828;4.718;2023-07-30T00:11:15;7.75;;;3.03;;
18239;SDS011;9244;50.828;4.718;2023-07-30T00:13:40;5.07;;;2.78;;
18239;SDS011;9244;50.828;4.718;2023-07-30T00:16:06;5.97;;;2.70;;
18239;SDS011;9244;50.828;4.718;2023-07-30T00:18:31;8.88;;;2.80;;
18239;SDS011;9244;50.828;4.718;2023-07-30T00:20:57;6.55;;;2.92;;
18239;SDS011;9244;50.828;4.718;2023-07-30T00:23:22;8.30;;;3.10;;
18239;SDS011;9244;50.828;4.718;2023-07-30T00:25:48;6.82;;;3.10;;
18239;SDS011;9244;50.828;4.718;2023-07-30T00:28:14;9.93;;;3.55;;
18239;SDS011;9244;50.828;4.718;2023-07-30T00:30:39;7.97;;;2.85;;
18239;SDS011;9244;50.828;4.718;2023-07-30T00:33:05;7.32;;;3.30;;
18239;SDS011;9244;50.828;4.718;2023-07-30T00:35:30;8.00;;;3.35;;
18239;SDS011;9244;50.828;4.718;2023-07-30T00:37:56;9.95;;;3.30;;
18239;SDS011;9244;50.828;4.718;2023-07-30T00:40:22;5.68;;;3.00;;
18239;SDS011;9244;50.828;4.718;2023-07-30T00:42:47;7.55;;;3.67;;
18239;SDS011;9244;50.828;4.718;2023-07-30T00:45:13;5.25;;;2.63;;
18239;SDS011;9244;50.828;4.718;2023-07-30T00:47:38;7.85;;;2.85;;
18239;SDS011;9244;50.828;4.718;2023-07-30T00:50:05;7.88;;;2.97;;
18239;SDS011;9244;50.828;4.718;2023-07-30T00:52:32;6.53;;;3.00;;
18239;SDS011;9244;50.828;4.718;2023-07-30T00:54:58;7.20;;;2.65;;
18239;SDS011;9244;50.828;4.718;2023-07-30T00:57:26;10.75;;;3.28;;
18239;SDS011;9244;50.828;4.718;2023-07-30T00:59:52;5.38;;;2.83;;
18239;SDS011;9244;50.828;4.718;2023-07-30T01:02:18;7.50;;;2.47;;
18239;SDS011;9244;50.828;4.718;2023-07-30T01:04:45;9.85;;;2.80;;
18239;SDS011;9244;50.828;4.718;2023-07-30T01:07:10;7.45;;;2.88;;
18239;SDS011;9244;50.828;4.718;2023-07-30T01:09:36;7.30;;;2.72;;
18239;SDS011;9244;50.828;4.718;2023-07-30T01:12:02;8.02;;;2.67;;
18239;SDS011;9244;50.828;4.718;2023-07-30T01:14:29;9.48;;;2.80;;
18239;SDS011;9244;50.828;4.718;2023-07-30T01:16:56;8.73;;;2.88;;
18239;SDS011;9244;50.828;4.718;2023-07-30T01:19:22;8.70;;;2.97;;
18239;SDS011;9244;50.828;4.718;2023-07-30T01:21:48;5.40;;;2.55;;
18239;SDS011;9244;50.828;4.718;2023-07-30T01:24:13;7.15;;;2.78;;
18239;SDS011;9244;50.828;4.718;2023-07-30T01:26:40;7.53;;;2.78;;
18239;SDS011;9244;50.828;4.718;2023-07-30T01:29:10;13.32;;;3.08;;
18239;SDS011;9244;50.828;4.718;2023-07-30T01:31:41;6.85;;;2.95;;
18239;SDS011;9244;50.828;4.718;2023-07-30T01:34:08;6.75;;;2.80;;
18239;SDS011;9244;50.828;4.718;2023-07-30T01:36:37;9.30;;;3.22;;
18239;SDS011;9244;50.828;4.718;2023-07-30T01:39:04;7.13;;;3.20;;
18239;SDS011;9244;50.828;4.718;2023-07-30T01:41:30;6.07;;;2.97;;
18239;SDS011;9244;50.828;4.718;2023-07-30T01:43:56;9.77;;;3.00;;
18239;SDS011;9244;50.828;4.718;2023-07-30T01:46:22;6.97;;;3.08;;
18239;SDS011;9244;50.828;4.718;2023-07-30T01:48:48;8.80;;;3.35;;
18239;SDS011;9244;50.828;4.718;2023-07-30T01:51:13;8.23;;;3.53;;
18239;SDS011;9244;50.828;4.718;2023-07-30T01:53:39;8.82;;;2.97;;
18239;SDS011;9244;50.828;4.718;2023-07-30T01:56:04;4.53;;;2.13;;
18239;SDS011;9244;50.828;4.718;2023-07-30T01:58:30;8.95;;;2.65;;
18239;SDS011;9244;50.828;4.718;2023-07-30T02:00:55;8.95;;;3.35;;
18239;SDS011;9244;50.828;4.718;2023-07-30T02:03:21;7.80;;;2.25;;
18239;SDS011;9244;50.828;4.718;2023-07-30T02:05:47;7.25;;;2.97;;
18239;SDS011;9244;50.828;4.718;2023-07-30T02:08:12;8.93;;;3.28;;
18239;SDS011;9244;50.828;4.718;2023-07-30T02:10:41;9.52;;;2.97;;
18239;SDS011;9244;50.828;4.718;2023-07-30T02:13:06;6.40;;;2.38;;
18239;SDS011;9244;50.828;4.718;2023-07-30T02:15:32;8.40;;;3.00;;
18239;SDS011;9244;50.828;4.718;2023-07-30T02:17:58;6.65;;;2.53;;
18239;SDS011;9244;50.828;4.718;2023-07-30T02:20:23;9.73;;;2.72;;
18239;SDS011;9244;50.828;4.718;2023-07-30T02:22:49;12.07;;;4.13;;
18239;SDS011;9244;50.828;4.718;2023-07-30T02:25:15;8.00;;;2.60;;
18239;SDS011;9244;50.828;4.718;2023-07-30T02:27:40;10.35;;;3.05;;
18239;SDS011;9244;50.828;4.718;2023-07-30T02:30:06;8.43;;;3.05;;
18239;SDS011;9244;50.828;4.718;2023-07-30T02:32:32;8.20;;;2.72;;
18239;SDS011;9244;50.828;4.718;2023-07-30T02:34:57;5.90;;;2.45;;
18239;SDS011;9244;50.828;4.718;2023-07-30T02:37:23;9.10;;;2.63;;
18239;SDS011;9244;50.828;4.718;2023-07-30T02:39:49;8.60;;;2.47;;
18239;SDS011;9244;50.828;4.718;2023-07-30T02:42:14;7.25;;;2.35;;
18239;SDS011;9244;50.828;4.718;2023-07-30T02:44:40;9.35;;;2.60;;
18239;SDS011;9244;50.828;4.718;2023-07-30T02:47:05;6.68;;;2.33;;
18239;SDS011;9244;50.828;4.718;2023-07-30T02:49:31;7.35;;;2.42;;
18239;SDS011;9244;50.828;4.718;2023-07-30T02:51:57;8.20;;;2.80;;
18239;SDS011;9244;50.828;4.718;2023-07-30T02:54:22;6.47;;;2.38;;
18239;SDS011;9244;50.828;4.718;2023-07-30T02:56:48;8.00;;;2.65;;
18239;SDS011;9244;50.828;4.718;2023-07-30T02:59:13;8.52;;;2.45;;
18239;SDS011;9244;50.828;4.718;2023-07-30T03:01:39;7.00;;;2.17;;
18239;SDS011;9244;50.828;4.718;2023-07-30T03:04:05;7.53;;;2.97;;
18239;SDS011;9244;50.828;4.718;2023-07-30T03:06:31;9.30;;;2.10;;
18239;SDS011;9244;50.828;4.718;2023-07-30T03:08:56;7.65;;;2.63;;
18239;SDS011;9244;50.828;4.718;2023-07-30T03:11:22;8.40;;;2.33;;
18239;SDS011;9244;50.828;4.718;2023-07-30T03:13:48;7.20;;;2.42;;
18239;SDS011;9244;50.828;4.718;2023-07-30T03:16:14;10.20;;;2.60;;
18239;SDS011;9244;50.828;4.718;2023-07-30T03:18:39;9.07;;;2.40;;
18239;SDS011;9244;50.828;4.718;2023-07-30T03:21:05;7.20;;;2.35;;
18239;SDS011;9244;50.828;4.718;2023-07-30T03:23:31;7.07;;;2.65;;
18239;SDS011;9244;50.828;4.718;2023-07-30T03:25:57;6.18;;;2.60;;
18239;SDS011;9244;50.828;4.718;2023-07-30T03:28:25;6.03;;;2.38;;
18239;SDS011;9244;50.828;4.718;2023-07-30T03:30:50;6.07;;;2.45;;
18239;SDS011;9244;50.828;4.718;2023-07-30T03:33:16;12.55;;;2.95;;
18239;SDS011;9244;50.828;4.718;2023-07-30T03:35:41;5.35;;;2.15;;
18239;SDS011;9244;50.828;4.718;2023-07-30T03:38:07;12.73;;;3.10;;
18239;SDS011;9244;50.828;4.718;2023-07-30T03:40:33;7.05;;;2.55;;
18239;SDS011;9244;50.828;4.718;2023-07-30T03:42:58;7.88;;;2.72;;
18239;SDS011;9244;50.828;4.718;2023-07-30T03:45:24;6.88;;;2.40;;
18239;SDS011;9244;50.828;4.718;2023-07-30T03:47:50;7.88;;;2.70;;
18239;SDS011;9244;50.828;4.718;2023-07-30T03:50:15;9.60;;;2.70;;
18239;SDS011;9244;50.828;4.718;2023-07-30T03:52:41;4.85;;;2.15;;
18239;SDS011;9244;50.828;4.718;2023-07-30T03:55:07;6.75;;;2.40;;
18239;SDS011;9244;50.828;4.718;2023-07-30T03:57:32;11.15;;;3.20;;
18239;SDS011;9244;50.828;4.718;2023-07-30T03:59:58;6.47;;;2.92;;
18239;SDS011;9244;50.828;4.718;2023-07-30T04:02:24;9.70;;;2.28;;
18239;SDS011;9244;50.828;4.718;2023-07-30T04:04:50;7.85;;;2.80;;
18239;SDS011;9244;50.828;4.718;2023-07-30T04:07:16;8.85;;;2.85;;
18239;SDS011;9244;50.828;4.718;2023-07-30T04:09:41;6.88;;;1.90;;
18239;SDS011;9244;50.828;4.718;2023-07-30T04:12:07;6.85;;;2.10;;
18239;SDS011;9244;50.828;4.718;2023-07-30T04:14:33;5.72;;;2.10;;
18239;SDS011;9244;50.828;4.718;2023-07-30T04:16:58;6.22;;;2.00;;
18239;SDS011;9244;50.828;4.718;2023-07-30T04:19:24;6.65;;;2.20;;
18239;SDS011;9244;50.828;4.718;2023-07-30T04:21:50;8.43;;;2.22;;
18239;SDS011;9244;50.828;4.718;2023-07-30T04:24:16;6.07;;;2.10;;
18239;SDS011;9244;50.828;4.718;2023-07-30T04:26:42;7.93;;;2.17;;
18239;SDS011;9244;50.828;4.718;2023-07-30T04:29:07;6.82;;;1.83;;
18239;SDS011;9244;50.828;4.718;2023-07-30T04:31:33;6.25;;;1.95;;
18239;SDS011;9244;50.828;4.718;2023-07-30T04:33:58;5.18;;;1.52;;
18239;SDS011;9244;50.828;4.718;2023-07-30T04:36:24;6.80;;;2.25;;
18239;SDS011;9244;50.828;4.718;2023-07-30T04:38:50;9.90;;;2.30;;
18239;SDS011;9244;50.828;4.718;2023-07-30T04:41:15;7.05;;;2.15;;
18239;SDS011;9244;50.828;4.718;2023-07-30T04:43:43;7.18;;;2.33;;
18239;SDS011;9244;50.828;4.718;2023-07-30T04:46:09;9.15;;;2.65;;
18239;SDS011;9244;50.828;4.718;2023-07-30T04:48:34;11.35;;;3.00;;
18239;SDS011;9244;50.828;4.718;2023-07-30T04:51:01;9.60;;;2.42;;
18239;SDS011;9244;50.828;4.718;2023-07-30T04:53:27;7.40;;;2.63;;
18239;SDS011;9244;50.828;4.718;2023-07-30T04:55:56;8.30;;;2.33;;
18239;SDS011;9244;50.828;4.718;2023-07-30T04:58:24;11.73;;;2.45;;
18239;SDS011;9244;50.828;4.718;2023-07-30T05:00:49;7.75;;;2.45;;
18239;SDS011;9244;50.828;4.718;2023-07-30T05:03:15;9.40;;;2.40;;
18239;SDS011;9244;50.828;4.718;2023-07-30T05:05:41;7.95;;;2.42;;
18239;SDS011;9244;50.828;4.718;2023-07-30T05:08:07;8.32;;;2.75;;
18239;SDS011;9244;50.828;4.718;2023-07-30T05:10:32;8.75;;;3.05;;
18239;SDS011;9244;50.828;4.718;2023-07-30T05:12:58;8.48;;;2.58;;
18239;SDS011;9244;50.828;4.718;2023-07-30T05:15:24;7.53;;;2.75;;
18239;SDS011;9244;50.828;4.718;2023-07-30T05:17:50;9.75;;;2.88;;
18239;SDS011;9244;50.828;4.718;2023-07-30T05:20:16;7.80;;;2.55;;
18239;SDS011;9244;50.828;4.718;2023-07-30T05:22:41;9.60;;;2.88;;
18239;SDS011;9244;50.828;4.718;2023-07-30T05:25:07;13.18;;;3.13;;
18239;SDS011;9244;50.828;4.718;2023-07-30T05:27:35;8.57;;;2.00;;
18239;SDS011;9244;50.828;4.718;2023-07-30T05:30:00;8.63;;;2.67;;
18239;SDS011;9244;50.828;4.718;2023-07-30T05:32:26;7.60;;;2.40;;
18239;SDS011;9244;50.828;4.718;2023-07-30T05:34:52;7.57;;;2.25;;
18239;SDS011;9244;50.828;4.718;2023-07-30T05:37:18;4.82;;;2.03;;
18239;SDS011;9244;50.828;4.718;2023-07-30T05:39:43;8.93;;;2.15;;
18239;SDS011;9244;50.828;4.718;2023-07-30T05:42:09;6.43;;;2.63;;
18239;SDS011;9244;50.828;4.718;2023-07-30T05:44:34;12.68;;;3.00;;
18239;SDS011;9244;50.828;4.718;2023-07-30T05:47:00;6.47;;;2.20;;
18239;SDS011;9244;50.828;4.718;2023-07-30T05:49:26;10.63;;;2.40;;
18239;SDS011;9244;50.828;4.718;2023-07-30T05:51:51;11.90;;;2.90;;
18239;SDS011;9244;50.828;4.718;2023-07-30T05:54:17;8.10;;;2.55;;
18239;SDS011;9244;50.828;4.718;2023-07-30T05:56:43;9.80;;;2.70;;
18239;SDS011;9244;50.828;4.718;2023-07-30T05:59:08;9.82;;;2.80;;
18239;SDS011;9244;50.828;4.718;2023-07-30T06:01:34;10.25;;;2.97;;
18239;SDS011;9244;50.828;4.718;2023-07-30T06:04:00;9.10;;;3.00;;
18239;SDS011;9244;50.828;4.718;2023-07-30T06:06:25;9.15;;;2.05;;
18239;SDS011;9244;50.828;4.718;2023-07-30T06:08:54;9.45;;;2.50;;
18239;SDS011;9244;50.828;4.718;2023-07-30T06:11:20;8.27;;;2.63;;
18239;SDS011;9244;50.828;4.718;2023-07-30T06:13:46;10.48;;;3.15;;
18239;SDS011;9244;50.828;4.718;2023-07-30T06:16:11;14.10;;;2.92;;
18239;SDS011;9244;50.828;4.718;2023-07-30T06:18:38;11.55;;;3.00;;
18239;SDS011;9244;50.828;4.718;2023-07-30T06:21:04;11.77;;;2.72;;
18239;SDS011;9244;50.828;4.718;2023-07-30T06:23:29;10.20;;;3.25;;
18239;SDS011;9244;50.828;4.718;2023-07-30T06:25:55;15.82;;;2.75;;
18239;SDS011;9244;50.828;4.718;2023-07-30T06:28:20;9.77;;;3.05;;
18239;SDS011;9244;50.828;4.718;2023-07-30T06:30:46;11.80;;;2.35;;
18239;SDS011;9244;50.828;4.718;2023-07-30T06:33:12;9.50;;;3.25;;
18239;SDS011;9244;50.828;4.718;2023-07-30T06:35:38;9.15;;;2.55;;
18239;SDS011;9244;50.828;4.718;2023-07-30T06:38:05;9.60;;;2.85;;
18239;SDS011;9244;50.828;4.718;2023-07-30T06:40:33;11.98;;;2.75;;
18239;SDS011;9244;50.828;4.718;2023-07-30T06:42:58;11.18;;;2.53;;
18239;SDS011;9244;50.828;4.718;2023-07-30T06:45:24;10.70;;;3.03;;
18239;SDS011;9244;50.828;4.718;2023-07-30T06:47:50;10.68;;;3.08;;
18239;SDS011;9244;50.828;4.718;2023-07-30T06:50:15;11.07;;;3.33;;
18239;SDS011;9244;50.828;4.718;2023-07-30T06:52:41;5.93;;;2.63;;
18239;SDS011;9244;50.828;4.718;2023-07-30T06:55:07;11.82;;;3.70;;
18239;SDS011;9244;50.828;4.718;2023-07-30T06:57:32;13.52;;;3.38;;
18239;SDS011;9244;50.828;4.718;2023-07-30T06:59:58;11.98;;;3.28;;
18239;SDS011;9244;50.828;4.718;2023-07-30T07:02:25;8.07;;;2.92;;
18239;SDS011;9244;50.828;4.718;2023-07-30T07:04:51;15.63;;;3.17;;
18239;SDS011;9244;50.828;4.718;2023-07-30T07:07:16;9.82;;;3.25;;
18239;SDS011;9244;50.828;4.718;2023-07-30T07:09:42;12.93;;;3.05;;
18239;SDS011;9244;50.828;4.718;2023-07-30T07:12:08;10.20;;;2.80;;
18239;SDS011;9244;50.828;4.718;2023-07-30T07:14:33;9.90;;;2.55;;
18239;SDS011;9244;50.828;4.718;2023-07-30T07:16:59;9.45;;;3.05;;
18239;SDS011;9244;50.828;4.718;2023-07-30T07:19:25;11.75;;;3.05;;
18239;SDS011;9244;50.828;4.718;2023-07-30T07:21:50;9.80;;;3.20;;
18239;SDS011;9244;50.828;4.718;2023-07-30T07:24:16;7.60;;;2.55;;
18239;SDS011;9244;50.828;4.718;2023-07-30T07:26:41;7.45;;;2.40;;
18239;SDS011;9244;50.828;4.718;2023-07-30T07:29:07;9.27;;;3.58;;
18239;SDS011;9244;50.828;4.718;2023-07-30T07:31:34;8.23;;;2.55;;
18239;SDS011;9244;50.828;4.718;2023-07-30T07:34:00;7.32;;;2.40;;
18239;SDS011;9244;50.828;4.718;2023-07-30T07:36:25;8.70;;;2.83;;
18239;SDS011;9244;50.828;4.718;2023-07-30T07:38:51;9.70;;;3.50;;
18239;SDS011;9244;50.828;4.718;2023-07-30T07:41:17;12.18;;;2.92;;
18239;SDS011;9244;50.828;4.718;2023-07-30T07:43:46;7.43;;;2.63;;
18239;SDS011;9244;50.828;4.718;2023-07-30T07:46:12;12.80;;;3.05;;
18239;SDS011;9244;50.828;4.718;2023-07-30T07:48:39;5.32;;;2.03;;
18239;SDS011;9244;50.828;4.718;2023-07-30T07:51:06;11.68;;;2.55;;
18239;SDS011;9244;50.828;4.718;2023-07-30T07:53:31;10.95;;;2.97;;
18239;SDS011;9244;50.828;4.718;2023-07-30T07:55:57;8.25;;;2.28;;
18239;SDS011;9244;50.828;4.718;2023-07-30T07:58:23;9.23;;;2.85;;
18239;SDS011;9244;50.828;4.718;2023-07-30T08:00:48;7.07;;;2.10;;
18239;SDS011;9244;50.828;4.718;2023-07-30T08:03:14;7.20;;;2.40;;
18239;SDS011;9244;50.828;4.718;2023-07-30T08:05:39;10.50;;;2.70;;
18239;SDS011;9244;50.828;4.718;2023-07-30T08:08:05;5.57;;;1.95;;
18239;SDS011;9244;50.828;4.718;2023-07-30T08:10:31;6.47;;;2.55;;
18239;SDS011;9244;50.828;4.718;2023-07-30T08:12:57;9.27;;;2.78;;
18239;SDS011;9244;50.828;4.718;2023-07-30T08:15:22;10.98;;;3.70;;
18239;SDS011;9244;50.828;4.718;2023-07-30T08:17:48;9.25;;;2.33;;
18239;SDS011;9244;50.828;4.718;2023-07-30T08:20:13;6.55;;;2.25;;
18239;SDS011;9244;50.828;4.718;2023-07-30T08:22:39;6.85;;;2.28;;
18239;SDS011;9244;50.828;4.718;2023-07-30T08:25:05;8.82;;;2.80;;
18239;SDS011;9244;50.828;4.718;2023-07-30T08:27:31;7.05;;;2.10;;
18239;SDS011;9244;50.828;4.718;2023-07-30T08:29:56;6.50;;;2.10;;
18239;SDS011;9244;50.828;4.718;2023-07-30T08:32:22;4.60;;;1.92;;
18239;SDS011;9244;50.828;4.718;2023-07-30T08:34:48;7.30;;;2.00;;
18239;SDS011;9244;50.828;4.718;2023-07-30T08:37:13;6.25;;;1.95;;
18239;SDS011;9244;50.828;4.718;2023-07-30T08:39:39;7.68;;;1.98;;
18239;SDS011;9244;50.828;4.718;2023-07-30T08:42:05;9.70;;;2.78;;
18239;SDS011;9244;50.828;4.718;2023-07-30T08:44:30;5.35;;;1.90;;
18239;SDS011;9244;50.828;4.718;2023-07-30T08:46:56;4.93;;;1.48;;
18239;SDS011;9244;50.828;4.718;2023-07-30T08:49:22;10.02;;;2.80;;
18239;SDS011;9244;50.828;4.718;2023-07-30T08:51:48;9.68;;;2.08;;
18239;SDS011;9244;50.828;4.718;2023-07-30T08:54:18;9.52;;;2.33;;
18239;SDS011;9244;50.828;4.718;2023-07-30T08:56:47;7.50;;;2.10;;
18239;SDS011;9244;50.828;4.718;2023-07-30T08:59:14;3.60;;;1.63;;
18239;SDS011;9244;50.828;4.718;2023-07-30T09:01:40;5.43;;;2.13;;
18239;SDS011;9244;50.828;4.718;2023-07-30T09:04:07;9.13;;;2.08;;
18239;SDS011;9244;50.828;4.718;2023-07-30T09:06:33;6.45;;;1.80;;
18239;SDS011;9244;50.828;4.718;2023-07-30T09:08:59;7.88;;;2.20;;
18239;SDS011;9244;50.828;4.718;2023-07-30T09:11:25;6.15;;;1.80;;
18239;SDS011;9244;50.828;4.718;2023-07-30T09:13:52;9.10;;;2.28;;
18239;SDS011;9244;50.828;4.718;2023-07-30T09:16:19;5.80;;;1.88;;
18239;SDS011;9244;50.828;4.718;2023-07-30T09:18:50;7.93;;;2.00;;
18239;SDS011;9244;50.828;4.718;2023-07-30T09:21:18;8.75;;;2.75;;
18239;SDS011;9244;50.828;4.718;2023-07-30T09:23:45;8.70;;;2.38;;
18239;SDS011;9244;50.828;4.718;2023-07-30T09:26:12;5.90;;;1.58;;
18239;SDS011;9244;50.828;4.718;2023-07-30T09:28:39;5.53;;;1.65;;
18239;SDS011;9244;50.828;4.718;2023-07-30T09:31:05;6.80;;;2.20;;
18239;SDS011;9244;50.828;4.718;2023-07-30T09:33:33;7.18;;;2.17;;
18239;SDS011;9244;50.828;4.718;2023-07-30T09:36:02;6.45;;;2.08;;
18239;SDS011;9244;50.828;4.718;2023-07-30T09:38:29;9.05;;;2.30;;
18239;SDS011;9244;50.828;4.718;2023-07-30T09:41:01;9.10;;;2.65;;
18239;SDS011;9244;50.828;4.718;2023-07-30T09:43:28;9.68;;;2.40;;
18239;SDS011;9244;50.828;4.718;2023-07-30T09:46:01;6.38;;;2.20;;
18239;SDS011;9244;50.828;4.718;2023-07-30T09:48:29;8.07;;;2.72;;
18239;SDS011;9244;50.828;4.718;2023-07-30T09:50:56;7.47;;;2.85;;
18239;SDS011;9244;50.828;4.718;2023-07-30T09:53:27;9.88;;;2.50;;
18239;SDS011;9244;50.828;4.718;2023-07-30T09:55:54;7.80;;;2.45;;
18239;SDS011;9244;50.828;4.718;2023-07-30T09:58:20;7.75;;;2.50;;
18239;SDS011;9244;50.828;4.718;2023-07-30T10:00:45;10.05;;;3.00;;
18239;SDS011;9244;50.828;4.718;2023-07-30T10:03:15;8.85;;;2.50;;
18239;SDS011;9244;50.828;4.718;2023-07-30T10:05:41;7.13;;;2.60;;
18239;SDS011;9244;50.828;4.718;2023-07-30T10:08:10;7.93;;;1.98;;
18239;SDS011;9244;50.828;4.718;2023-07-30T10:10:40;8.48;;;2.80;;
18239;SDS011;9244;50.828;4.718;2023-07-30T10:13:08;5.10;;;1.77;;
18239;SDS011;9244;50.828;4.718;2023-07-30T10:15:37;4.78;;;1.75;;
18239;SDS011;9244;50.828;4.718;2023-07-30T10:18:03;9.93;;;2.97;;
18239;SDS011;9244;50.828;4.718;2023-07-30T10:20:30;4.85;;;1.88;;
18239;SDS011;9244;50.828;4.718;2023-07-30T10:22:57;6.18;;;1.77;;
18239;SDS011;9244;50.828;4.718;2023-07-30T10:25:28;7.30;;;2.45;;
18239;SDS011;9244;50.828;4.718;2023-07-30T10:30:57;6.07;;;1.98;;
18239;SDS011;9244;50.828;4.718;2023-07-30T10:33:26;5.18;;;1.95;;
18239;SDS011;9244;50.828;4.718;2023-07-30T10:36:12;7.05;;;2.13;;
18239;SDS011;9244;50.828;4.718;2023-07-30T10:38:39;6.00;;;1.75;;
18239;SDS011;9244;50.828;4.718;2023-07-30T10:41:10;6.25;;;1.95;;
18239;SDS011;9244;50.828;4.718;2023-07-30T10:43:42;3.55;;;1.70;;
18239;SDS011;9244;50.828;4.718;2023-07-30T10:46:12;10.05;;;2.00;;
18239;SDS011;9244;50.828;4.718;2023-07-30T10:48:42;6.32;;;1.70;;
18239;SDS011;9244;50.828;4.718;2023-07-30T10:51:10;7.32;;;2.42;;
18239;SDS011;9244;50.828;4.718;2023-07-30T10:53:37;3.78;;;1.38;;
18239;SDS011;9244;50.828;4.718;2023-07-30T10:56:05;7.70;;;1.60;;
18239;SDS011;9244;50.828;4.718;2023-07-30T10:58:35;8.60;;;1.80;;
18239;SDS011;9244;50.828;4.718;2023-07-30T11:01:05;7.03;;;1.98;;
18239;SDS011;9244;50.828;4.718;2023-07-30T11:03:32;8.93;;;2.25;;
18239;SDS011;9244;50.828;4.718;2023-07-30T11:05:58;5.97;;;1.70;;
18239;SDS011;9244;50.828;4.718;2023-07-30T11:11:01;5.07;;;1.92;;
18239;SDS011;9244;50.828;4.718;2023-07-30T11:13:27;6.15;;;1.95;;
18239;SDS011;9244;50.828;4.718;2023-07-30T11:15:53;4.60;;;1.70;;
18239;SDS011;9244;50.828;4.718;2023-07-30T11:18:19;7.38;;;1.77;;
18239;SDS011;9244;50.828;4.718;2023-07-30T11:20:44;6.03;;;2.25;;
18239;SDS011;9244;50.828;4.718;2023-07-30T11:23:22;6.55;;;1.88;;
18239;SDS011;9244;50.828;4.718;2023-07-30T11:25:49;7.65;;;2.03;;
18239;SDS011;9244;50.828;4.718;2023-07-30T11:33:41;6.43;;;1.80;;
18239;SDS011;9244;50.828;4.718;2023-07-30T11:36:09;8.38;;;1.90;;
18239;SDS011;9244;50.828;4.718;2023-07-30T11:38:40;6.05;;;1.85;;
18239;SDS011;9244;50.828;4.718;2023-07-30T11:41:06;7.38;;;2.17;;
18239;SDS011;9244;50.828;4.718;2023-07-30T11:43:35;5.57;;;1.88;;
18239;SDS011;9244;50.828;4.718;2023-07-30T11:46:10;5.47;;;1.77;;
18239;SDS011;9244;50.828;4.718;2023-07-30T11:48:40;6.60;;;1.73;;
18239;SDS011;9244;50.828;4.718;2023-07-30T11:51:24;4.40;;;1.38;;
18239;SDS011;9244;50.828;4.718;2023-07-30T11:53:52;6.95;;;1.70;;
18239;SDS011;9244;50.828;4.718;2023-07-30T11:56:20;6.35;;;1.45;;
18239;SDS011;9244;50.828;4.718;2023-07-30T11:58:50;4.43;;;1.23;;
18239;SDS011;9244;50.828;4.718;2023-07-30T12:01:18;4.88;;;1.60;;
18239;SDS011;9244;50.828;4.718;2023-07-30T12:03:44;3.95;;;1.40;;
18239;SDS011;9244;50.828;4.718;2023-07-30T12:06:11;5.32;;;1.48;;
18239;SDS011;9244;50.828;4.718;2023-07-30T12:08:37;4.95;;;1.50;;
18239;SDS011;9244;50.828;4.718;2023-07-30T12:11:08;6.35;;;1.70;;
18239;SDS011;9244;50.828;4.718;2023-07-30T12:13:41;5.78;;;1.83;;
18239;SDS011;9244;50.828;4.718;2023-07-30T12:16:11;4.28;;;1.40;;
18239;SDS011;9244;50.828;4.718;2023-07-30T12:18:38;4.13;;;1.40;;
18239;SDS011;9244;50.828;4.718;2023-07-30T12:21:04;4.82;;;1.30;;
18239;SDS011;9244;50.828;4.718;2023-07-30T12:23:32;6.03;;;1.77;;
18239;SDS011;9244;50.828;4.718;2023-07-30T12:26:02;3.28;;;1.63;;
18239;SDS011;9244;50.828;4.718;2023-07-30T12:28:31;3.65;;;1.20;;
18239;SDS011;9244;50.828;4.718;2023-07-30T12:30:59;3.45;;;1.15;;
18239;SDS011;9244;50.828;4.718;2023-07-30T12:33:25;4.28;;;1.30;;
18239;SDS011;9244;50.828;4.718;2023-07-30T12:35:50;6.97;;;1.85;;
18239;SDS011;9244;50.828;4.718;2023-07-30T12:38:16;3.83;;;1.00;;
18239;SDS011;9244;50.828;4.718;2023-07-30T12:40:41;5.68;;;1.38;;
18239;SDS011;9244;50.828;4.718;2023-07-30T12:43:07;3.75;;;1.63;;
18239;SDS011;9244;50.828;4.718;2023-07-30T12:45:34;4.40;;;1.80;;
18239;SDS011;9244;50.828;4.718;2023-07-30T12:48:00;5.50;;;1.60;;
18239;SDS011;9244;50.828;4.718;2023-07-30T12:50:26;6.18;;;1.95;;
18239;SDS011;9244;50.828;4.718;2023-07-30T12:52:52;8.57;;;2.00;;
18239;SDS011;9244;50.828;4.718;2023-07-30T12:55:18;6.15;;;2.05;;
18239;SDS011;9244;50.828;4.718;2023-07-30T12:57:43;4.68;;;1.33;;
18239;SDS011;9244;50.828;4.718;2023-07-30T13:00:09;3.33;;;1.55;;
18239;SDS011;9244;50.828;4.718;2023-07-30T13:02:35;5.45;;;1.48;;
18239;SDS011;9244;50.828;4.718;2023-07-30T13:05:02;5.20;;;1.95;;
18239;SDS011;9244;50.828;4.718;2023-07-30T13:07:29;4.75;;;1.52;;
18239;SDS011;9244;50.828;4.718;2023-07-30T13:10:02;4.60;;;1.40;;
18239;SDS011;9244;50.828;4.718;2023-07-30T13:12:31;5.78;;;1.60;;
18239;SDS011;9244;50.828;4.718;2023-07-30T13:14:57;3.22;;;1.38;;
18239;SDS011;9244;50.828;4.718;2023-07-30T13:17:23;2.92;;;1.02;;
18239;SDS011;9244;50.828;4.718;2023-07-30T13:19:49;4.43;;;1.30;;
18239;SDS011;9244;50.828;4.718;2023-07-30T13:22:15;2.72;;;1.38;;
18239;SDS011;9244;50.828;4.718;2023-07-30T13:24:40;3.25;;;1.20;;
18239;SDS011;9244;50.828;4.718;2023-07-30T13:27:06;4.68;;;1.75;;
18239;SDS011;9244;50.828;4.718;2023-07-30T13:29:31;4.15;;;1.90;;
18239;SDS011;9244;50.828;4.718;2023-07-30T13:31:57;3.83;;;1.30;;
18239;SDS011;9244;50.828;4.718;2023-07-30T13:34:23;3.85;;;1.30;;
18239;SDS011;9244;50.828;4.718;2023-07-30T13:36:48;2.97;;;1.25;;
18239;SDS011;9244;50.828;4.718;2023-07-30T13:39:14;2.88;;;0.98;;
18239;SDS011;9244;50.828;4.718;2023-07-30T13:41:40;3.50;;;1.30;;
18239;SDS011;9244;50.828;4.718;2023-07-30T13:44:05;2.20;;;1.15;;
18239;SDS011;9244;50.828;4.718;2023-07-30T13:46:31;5.55;;;1.48;;
18239;SDS011;9244;50.828;4.718;2023-07-30T13:48:56;2.88;;;1.33;;
18239;SDS011;9244;50.828;4.718;2023-07-30T13:51:22;3.88;;;1.60;;
18239;SDS011;9244;50.828;4.718;2023-07-30T13:53:48;3.90;;;1.70;;
18239;SDS011;9244;50.828;4.718;2023-07-30T13:56:13;3.58;;;1.58;;
18239;SDS011;9244;50.828;4.718;2023-07-30T13:58:39;3.53;;;1.60;;
18239;SDS011;9244;50.828;4.718;2023-07-30T14:01:05;5.68;;;1.58;;
18239;SDS011;9244;50.828;4.718;2023-07-30T14:03:31;4.97;;;1.70;;
18239;SDS011;9244;50.828;4.718;2023-07-30T14:05:57;3.72;;;1.70;;
18239;SDS011;9244;50.828;4.718;2023-07-30T14:08:23;4.88;;;2.00;;
18239;SDS011;9244;50.828;4.718;2023-07-30T14:10:48;5.50;;;1.65;;
18239;SDS011;9244;50.828;4.718;2023-07-30T14:13:14;4.75;;;1.85;;
18239;SDS011;9244;50.828;4.718;2023-07-30T14:15:40;5.15;;;1.98;;
18239;SDS011;9244;50.828;4.718;2023-07-30T14:18:06;5.22;;;2.08;;
18239;SDS011;9244;50.828;4.718;2023-07-30T14:20:31;3.58;;;1.38;;
18239;SDS011;9244;50.828;4.718;2023-07-30T14:22:57;3.30;;;1.02;;
18239;SDS011;9244;50.828;4.718;2023-07-30T14:25:26;4.53;;;1.40;;
18239;SDS011;9244;50.828;4.718;2023-07-30T14:27:52;4.43;;;1.80;;
18239;SDS011;9244;50.828;4.718;2023-07-30T14:30:17;3.33;;;1.52;;
18239;SDS011;9244;50.828;4.718;2023-07-30T14:32:43;4.22;;;1.85;;
18239;SDS011;9244;50.828;4.718;2023-07-30T14:35:09;3.22;;;1.52;;
18239;SDS011;9244;50.828;4.718;2023-07-30T14:37:34;3.88;;;1.92;;
18239;SDS011;9244;50.828;4.718;2023-07-30T14:40:00;3.10;;;1.17;;
18239;SDS011;9244;50.828;4.718;2023-07-30T14:42:25;3.42;;;1.55;;
18239;SDS011;9244;50.828;4.718;2023-07-30T14:44:51;3.70;;;1.60;;
18239;SDS011;9244;50.828;4.718;2023-07-30T14:47:17;2.75;;;1.13;;
18239;SDS011;9244;50.828;4.718;2023-07-30T14:49:42;5.95;;;1.90;;
18239;SDS011;9244;50.828;4.718;2023-07-30T14:52:08;5.22;;;1.73;;
18239;SDS011;9244;50.828;4.718;2023-07-30T14:54:34;4.03;;;1.67;;
18239;SDS011;9244;50.828;4.718;2023-07-30T14:56:59;5.15;;;1.90;;
18239;SDS011;9244;50.828;4.718;2023-07-30T14:59:25;2.78;;;1.55;;
18239;SDS011;9244;50.828;4.718;2023-07-30T15:01:51;4.40;;;2.00;;
18239;SDS011;9244;50.828;4.718;2023-07-30T15:04:16;3.47;;;1.80;;
18239;SDS011;9244;50.828;4.718;2023-07-30T15:06:42;5.15;;;1.88;;